createdAt,value
2024-05-09T00:00:48.442Z,12.29
2024-05-09T00:03:36.905Z,12.33
2024-05-09T00:06:05.719Z,12.39
2024-05-09T00:08:34.586Z,12.41
2024-05-09T00:11:03.217Z,12.45
2024-05-09T00:13:31.710Z,12.43
2024-05-09T00:16:00.117Z,12.42
2024-05-09T00:18:28.594Z,12.44
2024-05-09T00:20:57.086Z,12.46
2024-05-09T00:23:25.622Z,12.45
2024-05-09T00:25:54.111Z,12.43
2024-05-09T00:28:23.195Z,12.36
2024-05-09T00:30:52.471Z,12.28
2024-05-09T00:33:21.286Z,12.24
2024-05-09T00:35:49.905Z,12.24
2024-05-09T00:38:18.352Z,12.20
2024-05-09T00:40:46.816Z,12.20
2024-05-09T00:43:15.680Z,12.23
2024-05-09T00:45:44.392Z,12.22
2024-05-09T00:48:19.627Z,12.19
2024-05-09T00:50:50.533Z,12.22
2024-05-09T00:53:19.307Z,12.22
2024-05-09T00:55:48.160Z,12.24
2024-05-09T00:58:21.158Z,12.15
2024-05-09T01:00:51.069Z,12.16
2024-05-09T01:03:20.366Z,12.14
2024-05-09T01:05:48.905Z,12.16
2024-05-09T01:08:18.214Z,12.14
2024-05-09T01:10:48.534Z,12.20
2024-05-09T01:13:17.356Z,12.22
2024-05-09T01:15:48.028Z,12.27
2024-05-09T01:18:16.907Z,12.27
2024-05-09T01:20:45.722Z,12.22
2024-05-09T01:23:16.030Z,12.24
2024-05-09T01:25:46.691Z,12.26
2024-05-09T01:28:16.304Z,12.28
2024-05-09T01:30:45.071Z,12.25
2024-05-09T01:33:13.925Z,12.23
2024-05-09T01:35:43.244Z,12.21
2024-05-09T01:38:17.246Z,12.17
2024-05-09T01:40:47.089Z,12.11
2024-05-09T01:43:16.092Z,12.25
2024-05-09T01:45:44.710Z,12.33
2024-05-09T01:48:13.378Z,12.39
2024-05-09T01:50:43.273Z,12.43
2024-05-09T01:53:14.919Z,12.45
2024-05-09T01:55:44.515Z,12.45
2024-05-09T01:58:13.226Z,12.44
2024-05-09T02:00:43.199Z,12.42
2024-05-09T02:03:16.409Z,12.28
2024-05-09T02:05:50.053Z,12.27
2024-05-09T02:08:21.259Z,12.28
2024-05-09T02:10:50.768Z,12.25
2024-05-09T02:13:19.631Z,12.23
2024-05-09T02:15:52.051Z,12.24
2024-05-09T02:18:20.897Z,12.24
2024-05-09T02:20:49.694Z,12.25
2024-05-09T02:23:18.377Z,12.27
2024-05-09T02:25:46.826Z,12.29
2024-05-09T02:28:15.228Z,12.24
2024-05-09T02:30:43.635Z,12.30
2024-05-09T02:33:13.958Z,12.33
2024-05-09T02:35:44.123Z,12.26
2024-05-09T02:38:13.682Z,12.14
2024-05-09T02:40:42.232Z,12.12
2024-05-09T02:43:12.985Z,12.12
2024-05-09T02:45:42.113Z,12.05
2024-05-09T02:48:12.089Z,12.09
2024-05-09T02:50:42.037Z,12.07
2024-05-09T02:53:14.756Z,12.06
2024-05-09T02:55:43.542Z,12.10
2024-05-09T02:58:12.400Z,12.10
2024-05-09T03:00:42.548Z,12.09
2024-05-09T03:03:14.336Z,12.15
2024-05-09T03:05:46.469Z,12.18
2024-05-09T03:08:15.904Z,12.14
2024-05-09T03:10:44.327Z,12.21
2024-05-09T03:13:15.215Z,12.23
2024-05-09T03:15:45.536Z,12.19
2024-05-09T03:18:15.596Z,12.26
2024-05-09T03:20:44.662Z,12.31
2024-05-09T03:23:13.476Z,12.28
2024-05-09T03:25:41.986Z,12.24
2024-05-09T03:28:11.421Z,12.26
2024-05-09T03:30:42.528Z,12.24
2024-05-09T03:33:20.529Z,12.13
2024-05-09T03:35:49.805Z,12.18
2024-05-09T03:38:18.447Z,12.18
2024-05-09T03:40:49.932Z,12.21
2024-05-09T03:43:19.921Z,12.25
2024-05-09T03:45:50.476Z,12.31
2024-05-09T03:48:19.239Z,12.33
2024-05-09T03:50:48.179Z,12.42
2024-05-09T03:53:16.929Z,12.48
2024-05-09T03:55:48.689Z,12.57
2024-05-09T03:58:17.117Z,12.66
2024-05-09T04:00:45.630Z,12.58
2024-05-09T04:03:14.873Z,12.71
2024-05-09T04:05:44.550Z,12.71
2024-05-09T04:08:15.662Z,12.78
2024-05-09T04:10:44.475Z,12.75
2024-05-09T04:13:13.103Z,12.93
2024-05-09T04:15:41.626Z,13.09
2024-05-09T04:18:10.320Z,13.16
2024-05-09T04:20:40.863Z,13.23
2024-05-09T04:23:14.607Z,13.32
2024-05-09T04:25:45.382Z,13.38
2024-05-09T04:28:14.496Z,13.31
2024-05-09T04:30:43.643Z,13.46
2024-05-09T04:33:15.072Z,13.55
2024-05-09T04:35:44.271Z,13.54
2024-05-09T04:38:14.644Z,13.49
2024-05-09T04:40:43.846Z,13.44
2024-05-09T04:43:18.487Z,13.64
2024-05-09T04:45:47.259Z,13.79
2024-05-09T04:48:16.371Z,13.90
2024-05-09T04:50:45.252Z,13.88
2024-05-09T04:53:17.185Z,13.88
2024-05-09T04:55:46.255Z,13.97
2024-05-09T04:58:14.760Z,14.10
2024-05-09T05:00:44.262Z,14.08
2024-05-09T05:03:15.272Z,14.02
2024-05-09T05:05:47.027Z,14.25
2024-05-09T05:08:17.983Z,14.34
2024-05-09T05:10:48.689Z,14.28
2024-05-09T05:13:21.659Z,14.25
2024-05-09T05:15:58.381Z,14.23
2024-05-09T05:18:28.295Z,14.18
2024-05-09T05:20:58.291Z,14.25
2024-05-09T05:23:27.056Z,14.28
2024-05-09T05:25:58.035Z,14.30
2024-05-09T05:28:26.396Z,14.30
2024-05-09T05:30:54.741Z,14.26
2024-05-09T05:33:23.596Z,14.24
2024-05-09T05:35:52.148Z,14.28
2024-05-09T05:38:23.870Z,14.38
2024-05-09T05:40:55.119Z,14.49
2024-05-09T05:43:23.644Z,14.52
2024-05-09T05:45:52.018Z,14.67
2024-05-09T05:48:20.534Z,14.82
2024-05-09T05:50:49.163Z,14.86
2024-05-09T05:53:17.667Z,14.93
2024-05-09T05:55:46.280Z,14.74
2024-05-09T05:58:15.073Z,14.57
2024-05-09T06:00:44.253Z,15.09
2024-05-09T06:03:14.164Z,15.17
2024-05-09T06:05:44.184Z,15.16
2024-05-09T06:08:13.056Z,15.32
2024-05-09T06:10:42.105Z,15.53
2024-05-09T06:13:13.117Z,15.47
2024-05-09T06:15:42.707Z,15.60
2024-05-09T06:18:12.622Z,15.61
2024-05-09T06:20:43.588Z,15.52
2024-05-09T06:23:14.288Z,15.59
2024-05-09T06:25:43.970Z,15.92
2024-05-09T06:28:12.469Z,16.18
2024-05-09T06:30:42.640Z,16.05
2024-05-09T06:33:14.350Z,16.39
2024-05-09T06:35:46.903Z,16.59
2024-05-09T06:38:15.428Z,16.66
2024-05-09T06:40:44.644Z,16.76
2024-05-09T06:43:15.571Z,16.84
2024-05-09T06:45:49.619Z,16.48
2024-05-09T06:48:19.733Z,16.77
2024-05-09T06:50:49.195Z,16.75
2024-05-09T06:53:23.465Z,16.84
2024-05-09T06:55:52.045Z,16.94
2024-05-09T06:58:20.495Z,16.98
2024-05-09T07:00:48.915Z,16.92
2024-05-09T07:03:19.062Z,16.85
2024-05-09T07:05:49.435Z,16.60
2024-05-09T07:08:19.042Z,16.74
2024-05-09T07:10:47.926Z,16.80
2024-05-09T07:13:16.657Z,16.67
2024-05-09T07:15:45.113Z,17.02
2024-05-09T07:18:17.829Z,16.91
2024-05-09T07:20:49.333Z,16.67
2024-05-09T07:23:19.264Z,17.27
2024-05-09T07:25:48.054Z,17.61
2024-05-09T07:28:19.147Z,17.78
2024-05-09T07:30:47.967Z,17.82
2024-05-09T07:33:22.963Z,17.79
2024-05-09T07:35:52.949Z,17.98
2024-05-09T07:38:21.807Z,18.10
2024-05-09T07:40:50.475Z,17.85
2024-05-09T07:43:18.906Z,17.92
2024-05-09T07:45:52.727Z,17.89
2024-05-09T07:52:39.102Z,18.49
2024-05-09T07:53:48.903Z,18.96
2024-05-09T07:56:22.699Z,18.92
2024-05-09T07:58:56.306Z,19.01
2024-05-09T08:01:26.482Z,19.05
2024-05-09T08:03:56.264Z,19.05
2024-05-09T08:06:25.418Z,18.86
2024-05-09T08:08:54.317Z,18.58
2024-05-09T08:11:23.677Z,18.93
2024-05-09T08:13:52.150Z,19.07
2024-05-09T08:16:20.695Z,19.26
2024-05-09T08:18:50.360Z,19.13
2024-05-09T08:21:19.289Z,19.29
2024-05-09T08:23:47.776Z,19.19
2024-05-09T08:26:16.183Z,19.28
2024-05-09T08:28:44.708Z,19.03
2024-05-09T08:31:13.337Z,19.15
2024-05-09T08:33:47.763Z,18.86
2024-05-09T08:36:17.328Z,18.86
2024-05-09T08:38:45.868Z,19.18
2024-05-09T08:41:15.802Z,19.23
2024-05-09T08:43:44.536Z,19.10
2024-05-09T08:46:14.223Z,19.13
2024-05-09T08:48:45.633Z,19.16
2024-05-09T08:51:14.499Z,19.27
2024-05-09T08:53:42.997Z,19.54
2024-05-09T08:56:11.666Z,19.57
2024-05-09T08:58:41.920Z,19.79
2024-05-09T09:01:12.245Z,19.89
2024-05-09T09:03:42.388Z,19.55
2024-05-09T09:06:15.063Z,19.24
2024-05-09T09:08:45.098Z,19.33
2024-05-09T09:11:13.604Z,20.07
2024-05-09T09:13:42.019Z,20.05
2024-05-09T09:16:10.423Z,20.10
2024-05-09T09:18:39.392Z,20.04
2024-05-09T09:21:10.617Z,20.36
2024-05-09T09:23:41.990Z,20.65
2024-05-09T09:26:16.241Z,21.05
2024-05-09T09:28:45.025Z,21.39
2024-05-09T09:31:19.584Z,20.77
2024-05-09T09:33:48.696Z,20.73
2024-05-09T09:36:18.363Z,20.36
2024-05-09T09:38:48.524Z,20.63
2024-05-09T09:41:17.855Z,20.94
2024-05-09T09:43:46.688Z,21.20
2024-05-09T09:46:17.054Z,21.08
2024-05-09T09:48:47.183Z,20.71
2024-05-09T09:51:16.436Z,20.89
2024-05-09T09:53:46.027Z,20.71
2024-05-09T09:56:17.947Z,20.63
2024-05-09T09:58:48.215Z,20.93
2024-05-09T10:01:16.790Z,21.10
2024-05-09T10:03:45.478Z,21.52
2024-05-09T10:06:15.413Z,21.57
2024-05-09T10:08:46.764Z,21.30
2024-05-09T10:11:21.099Z,21.29
2024-05-09T10:13:51.878Z,21.15
2024-05-09T10:16:23.032Z,21.07
2024-05-09T10:18:51.709Z,21.52
2024-05-09T10:21:20.843Z,21.57
2024-05-09T10:24:07.107Z,21.63
2024-05-09T10:26:38.324Z,21.13
2024-05-09T10:29:14.680Z,21.68
2024-05-09T10:31:45.626Z,21.94
2024-05-09T10:34:24.079Z,21.95
2024-05-09T10:36:54.441Z,21.57
2024-05-09T10:39:25.782Z,21.81
2024-05-09T10:41:54.259Z,21.77
2024-05-09T10:44:22.579Z,21.83
2024-05-09T10:46:50.961Z,21.40
2024-05-09T10:49:19.381Z,21.22
2024-05-09T10:51:48.601Z,21.28
2024-05-09T10:54:17.373Z,21.20
2024-05-09T10:56:45.818Z,21.51
2024-05-09T10:59:14.167Z,21.84
2024-05-09T11:01:42.664Z,21.75
2024-05-09T11:04:11.385Z,22.16
2024-05-09T11:06:40.390Z,22.24
2024-05-09T11:09:09.627Z,22.75
2024-05-09T11:11:38.128Z,22.60
2024-05-09T11:14:13.535Z,22.63
2024-05-09T11:16:41.893Z,22.37
2024-05-09T11:19:14.558Z,22.05
2024-05-09T11:21:43.256Z,22.06
2024-05-09T11:24:12.150Z,21.95
2024-05-09T11:26:40.530Z,22.66
2024-05-09T11:29:08.917Z,21.92
2024-05-09T11:31:47.794Z,22.27
2024-05-09T11:34:16.414Z,22.52
2024-05-09T11:36:44.946Z,22.33
2024-05-09T11:39:14.600Z,22.78
2024-05-09T11:41:43.088Z,22.94
2024-05-09T11:44:12.964Z,23.12
2024-05-09T11:46:42.702Z,22.49
2024-05-09T11:49:11.623Z,22.95
2024-05-09T11:51:40.157Z,22.90
2024-05-09T11:54:08.608Z,23.01
2024-05-09T11:56:37.175Z,23.29
2024-05-09T11:59:05.596Z,23.40
2024-05-09T12:01:34.140Z,23.30
2024-05-09T12:04:03.197Z,22.86
2024-05-09T12:06:32.112Z,22.84
2024-05-09T12:09:00.623Z,22.97
2024-05-09T12:11:29.119Z,22.79
2024-05-09T12:13:57.481Z,22.70
2024-05-09T12:16:26.244Z,23.14
2024-05-09T12:18:55.530Z,22.81
2024-05-09T12:21:23.997Z,23.33
2024-05-09T12:23:52.525Z,23.97
2024-05-09T12:26:20.981Z,24.32
2024-05-09T12:28:49.339Z,24.12
2024-05-09T12:31:17.773Z,24.37
2024-05-09T12:33:46.762Z,25.07
2024-05-09T12:36:15.266Z,25.26
2024-05-09T12:38:43.721Z,25.73
2024-05-09T12:41:12.118Z,25.50
2024-05-09T12:43:40.517Z,26.77
2024-05-09T12:46:08.939Z,27.22
2024-05-09T12:48:37.610Z,26.78
2024-05-09T12:51:06.208Z,25.90
2024-05-09T12:53:36.399Z,26.99
2024-05-09T12:56:06.657Z,27.36
2024-05-09T12:58:36.913Z,25.79
2024-05-09T13:01:05.556Z,25.17
2024-05-09T13:03:34.143Z,25.44
2024-05-09T13:06:02.766Z,25.14
2024-05-09T13:08:31.282Z,24.76
2024-05-09T13:11:00.308Z,23.86
2024-05-09T13:13:29.218Z,23.59
2024-05-09T13:15:57.654Z,23.65
2024-05-09T13:18:26.104Z,23.48
2024-05-09T13:20:54.428Z,23.19
2024-05-09T13:23:22.811Z,22.89
2024-05-09T13:25:51.221Z,22.60
2024-05-09T13:28:19.685Z,23.20
2024-05-09T13:30:48.328Z,24.22
2024-05-09T13:33:16.854Z,25.19
2024-05-09T13:35:49.233Z,26.50
2024-05-09T13:38:20.254Z,26.44
2024-05-09T13:40:50.422Z,27.44
2024-05-09T13:43:20.742Z,26.75
2024-05-09T13:45:49.639Z,26.32
2024-05-09T13:48:19.632Z,26.85
2024-05-09T13:50:48.538Z,28.06
2024-05-09T13:53:17.056Z,27.52
2024-05-09T13:55:45.626Z,27.90
2024-05-09T13:58:14.508Z,28.44
2024-05-09T14:00:47.889Z,28.09
2024-05-09T14:03:20.603Z,26.99
2024-05-09T14:05:51.570Z,25.83
2024-05-09T14:08:22.132Z,25.77
2024-05-09T14:10:52.206Z,26.62
2024-05-09T14:13:21.103Z,27.53
2024-05-09T14:15:49.996Z,25.88
2024-05-09T14:18:18.864Z,25.28
2024-05-09T14:20:47.282Z,25.60
2024-05-09T14:23:18.200Z,26.20
2024-05-09T14:25:52.368Z,26.05
2024-05-09T14:28:22.941Z,25.65
2024-05-09T14:30:51.726Z,25.37
2024-05-09T14:33:25.433Z,25.16
2024-05-09T14:35:54.521Z,25.09
2024-05-09T14:38:27.821Z,25.61
2024-05-09T14:40:56.396Z,26.15
2024-05-09T14:43:26.588Z,25.94
2024-05-09T14:45:55.943Z,26.37
2024-05-09T14:48:24.613Z,25.93
2024-05-09T14:50:53.107Z,25.63
2024-05-09T14:53:23.444Z,25.59
2024-05-09T14:55:51.927Z,26.27
2024-05-09T14:58:20.605Z,26.28
2024-05-09T15:00:51.735Z,25.72
2024-05-09T15:03:21.607Z,26.48
2024-05-09T15:05:51.826Z,26.41
2024-05-09T15:08:20.733Z,25.63
2024-05-09T15:10:50.228Z,24.90
2024-05-09T15:13:21.680Z,24.74
2024-05-09T15:15:50.538Z,23.52
2024-05-09T15:18:19.368Z,23.30
2024-05-09T15:20:48.292Z,23.17
2024-05-09T15:23:16.908Z,23.22
2024-05-09T15:25:45.359Z,22.85
2024-05-09T15:28:13.934Z,22.77
2024-05-09T15:30:46.142Z,22.60
2024-05-09T15:33:15.410Z,22.47
2024-05-09T15:35:46.131Z,22.44
2024-05-09T15:38:15.853Z,22.65
2024-05-09T15:40:44.480Z,22.63
2024-05-09T15:43:13.244Z,22.50
2024-05-09T15:45:41.916Z,22.91
2024-05-09T15:48:11.225Z,23.37
2024-05-09T15:50:42.089Z,24.33
2024-05-09T15:53:13.404Z,24.50
2024-05-09T15:55:43.234Z,24.98
2024-05-09T15:58:12.866Z,24.83
2024-05-09T16:00:44.788Z,24.57
2024-05-09T16:03:15.278Z,24.84
2024-05-09T16:05:48.169Z,25.13
2024-05-09T16:08:17.177Z,24.65
2024-05-09T16:10:47.125Z,23.78
2024-05-09T16:13:17.316Z,22.89
2024-05-09T16:15:46.526Z,22.54
2024-05-09T16:18:15.596Z,22.34
2024-05-09T16:20:45.658Z,22.49
2024-05-09T16:23:15.975Z,22.10
2024-05-09T16:25:47.469Z,22.18
2024-05-09T16:28:16.789Z,22.22
2024-05-09T16:30:45.317Z,22.01
2024-05-09T16:33:13.981Z,21.84
2024-05-09T16:35:42.428Z,21.63
2024-05-09T16:38:10.848Z,21.83
2024-05-09T16:40:41.119Z,22.19
2024-05-09T16:43:13.104Z,22.72
2024-05-09T16:45:44.578Z,22.91
2024-05-09T16:48:14.062Z,22.79
2024-05-09T16:50:43.483Z,22.85
2024-05-09T16:53:13.550Z,22.99
2024-05-09T16:55:41.984Z,23.15
2024-05-09T16:58:12.268Z,22.88
2024-05-09T17:00:43.445Z,22.67
2024-05-09T17:03:15.202Z,22.42
2024-05-09T17:05:48.508Z,21.59
2024-05-09T17:08:20.382Z,20.91
2024-05-09T17:10:49.936Z,20.43
2024-05-09T17:13:19.375Z,20.03
2024-05-09T17:15:52.307Z,19.48
2024-05-09T17:18:21.037Z,18.92
2024-05-09T17:20:51.342Z,18.38
2024-05-09T17:23:19.872Z,18.13
2024-05-09T17:25:48.246Z,17.81
2024-05-09T17:28:17.175Z,17.51
2024-05-09T17:30:45.699Z,17.14
2024-05-09T17:33:14.395Z,16.85
2024-05-09T17:35:45.487Z,16.61
2024-05-09T17:38:13.944Z,16.46
2024-05-09T18:11:36.444Z,13.59
2024-05-09T18:14:05.147Z,13.51
2024-05-09T18:16:33.717Z,13.39
2024-05-09T18:19:02.564Z,13.31
2024-05-09T18:21:31.338Z,13.18
2024-05-09T18:24:00.340Z,13.08
2024-05-09T18:26:29.214Z,13.00
2024-05-09T18:28:57.853Z,12.95
2024-05-09T18:31:26.349Z,12.89
2024-05-09T18:33:55.075Z,12.82
2024-05-09T18:36:23.805Z,12.74
2024-05-09T18:38:52.567Z,12.71
2024-05-09T18:41:21.832Z,12.66
2024-05-09T18:43:51.038Z,12.63
2024-05-09T18:46:19.710Z,12.61
2024-05-09T18:48:48.196Z,12.53
2024-05-09T18:51:16.991Z,12.49
2024-05-09T18:53:46.168Z,12.37
2024-05-09T18:56:14.720Z,12.35
2024-05-09T18:58:43.144Z,12.30
2024-05-09T19:01:11.689Z,12.31
2024-05-09T19:03:40.819Z,12.29
2024-05-09T19:06:09.547Z,12.24
2024-05-09T19:08:40.362Z,12.16
2024-05-09T19:11:08.905Z,12.10
2024-05-09T19:13:37.382Z,12.03
2024-05-09T19:16:06.343Z,11.93
2024-05-09T19:18:36.179Z,11.78
2024-05-09T19:21:05.145Z,11.68
2024-05-09T19:23:38.075Z,11.61
2024-05-09T19:26:08.409Z,11.55
2024-05-09T19:28:36.755Z,11.49
2024-05-09T19:31:05.557Z,11.45
2024-05-09T19:33:34.062Z,11.46
2024-05-09T19:36:03.195Z,11.45
2024-05-09T19:38:32.065Z,11.46
2024-05-09T19:41:00.725Z,11.49
2024-05-09T19:43:31.405Z,11.43
2024-05-09T19:46:01.297Z,11.38
2024-05-09T19:48:29.779Z,11.33
2024-05-09T19:50:58.261Z,11.31
2024-05-09T19:53:26.640Z,11.34
2024-05-09T19:55:55.599Z,11.35
2024-05-09T19:58:41.785Z,11.27
2024-05-09T20:01:10.284Z,11.21
2024-05-09T20:03:38.977Z,11.13
2024-05-09T20:06:07.700Z,10.99
2024-05-09T20:08:36.323Z,10.86
2024-05-09T20:11:05.077Z,10.74
2024-05-09T20:13:33.497Z,10.64
2024-05-09T20:16:02.194Z,10.50
2024-05-09T20:18:30.795Z,10.34
2024-05-09T20:21:00.098Z,10.39
2024-05-09T20:23:29.234Z,10.44
2024-05-09T20:25:58.510Z,10.46
2024-05-09T20:28:27.393Z,10.42
2024-05-09T20:30:56.072Z,10.38
2024-05-09T20:33:24.548Z,10.49
2024-05-09T20:35:55.407Z,10.70
2024-05-09T20:38:23.896Z,10.71
2024-05-09T20:40:52.604Z,10.68
2024-05-09T20:43:21.418Z,10.61
2024-05-09T20:45:50.131Z,10.57
2024-05-09T20:48:18.715Z,10.54
2024-05-09T20:50:49.385Z,10.51
2024-05-09T20:53:17.846Z,10.46
2024-05-09T20:55:47.167Z,10.37
2024-05-09T20:58:15.570Z,10.33
2024-05-09T21:00:45.817Z,10.29
2024-05-09T21:03:17.303Z,10.23
2024-05-09T21:05:48.392Z,10.22
2024-05-09T21:08:17.515Z,10.22
2024-05-09T21:10:46.054Z,10.20
2024-05-09T21:13:14.895Z,10.17
2024-05-09T21:15:44.774Z,10.08
2024-05-09T21:18:13.280Z,10.00
2024-05-09T21:20:42.330Z,9.91
2024-05-09T21:23:10.920Z,9.82
2024-05-09T21:25:39.595Z,9.78
2024-05-09T21:28:08.205Z,9.71
2024-05-09T21:30:41.805Z,9.66
2024-05-09T21:33:13.860Z,9.59
2024-05-09T21:35:44.346Z,9.50
2024-05-09T21:38:14.699Z,9.40
2024-05-09T21:40:44.568Z,9.39
2024-05-09T21:43:14.283Z,9.38
2024-05-09T21:45:43.341Z,9.35
2024-05-09T21:48:13.476Z,9.32
2024-05-09T21:50:42.695Z,9.36
2024-05-09T21:53:12.606Z,9.32
2024-05-09T21:55:47.347Z,9.29
2024-05-09T21:58:16.087Z,9.30
2024-05-09T22:00:46.358Z,9.33
2024-05-09T22:03:15.475Z,9.32
2024-05-09T22:05:45.206Z,9.30
2024-05-09T22:08:14.176Z,9.26
2024-05-09T22:10:42.977Z,9.24
2024-05-09T22:13:11.585Z,9.21
2024-05-09T22:15:40.778Z,9.19
2024-05-09T22:18:11.063Z,9.22
2024-05-09T22:20:45.458Z,9.23
2024-05-09T22:23:15.792Z,9.24
2024-05-09T22:25:44.606Z,9.18
2024-05-09T22:28:17.443Z,9.12
2024-05-09T22:30:47.036Z,9.05
2024-05-09T22:33:16.379Z,8.98
2024-05-09T22:35:45.144Z,8.93
2024-05-09T22:38:13.867Z,8.89
2024-05-09T22:40:47.705Z,8.85
2024-05-09T22:43:21.498Z,8.81
2024-05-09T22:45:56.897Z,8.78
2024-05-09T22:48:26.289Z,8.72
2024-05-09T22:50:55.224Z,8.70
2024-05-09T22:53:25.563Z,8.65
2024-05-09T22:55:54.491Z,8.62
2024-05-09T22:58:23.578Z,8.63
2024-05-09T23:00:52.730Z,8.64
2024-05-09T23:03:22.668Z,8.62
2024-05-09T23:05:53.334Z,8.60
2024-05-09T23:08:21.938Z,8.58
2024-05-09T23:10:50.929Z,8.55
2024-05-09T23:13:19.702Z,8.50
2024-05-09T23:15:48.362Z,8.46
2024-05-09T23:18:17.027Z,8.40
2024-05-09T23:20:45.484Z,8.35
2024-05-09T23:23:13.935Z,8.30
2024-05-09T23:25:42.373Z,8.25
2024-05-09T23:28:11.796Z,8.21
2024-05-09T23:30:41.474Z,8.18
2024-05-09T23:33:13.166Z,8.15
2024-05-09T23:35:44.374Z,8.08
2024-05-09T23:38:13.825Z,8.03
2024-05-09T23:40:43.291Z,7.96
2024-05-09T23:43:14.223Z,8.01
2024-05-09T23:45:43.816Z,8.01
2024-05-09T23:48:12.529Z,7.98
2024-05-09T23:50:41.837Z,8.00
2024-05-09T23:53:11.179Z,7.95
2024-05-09T23:55:40.519Z,7.91
2024-05-09T23:58:11.234Z,7.83
